Home > Products > Valid Products > TAF

000
FTUS44 KMOB 282359
TAFPNS
TAF
KPNS 282359Z 2900/2924 16008KT P6SM FEW040 BKN250
     FM290300 VRB03KT P6SM FEW050 SCT250
     FM291800 18008KT P6SM SCT250=



000
FTUS44 KMOB 282359
TAFMOB
TAF
KMOB 282359Z 2900/2924 15007KT P6SM FEW050 BKN070 BKN250
     FM290200 VRB03KT P6SM FEW050 SCT250
     FM292000 17008KT P6SM SCT250=



000
FTUS44 KMOB 280520
TAFPNS
TAF
KPNS 280520Z 2806/2906 16005KT P6SM SKC
     FM281500 17009KT P6SM SCT050 BKN250
     FM290300 21004KT P6SM FEW250=



000
FTUS44 KMOB 280520
TAFMOB
TAF
KMOB 280520Z 2806/2906 15005KT P6SM FEW120 SCT250
     FM281500 16009KT P6SM SCT050 BKN250
     FM290100 18002KT P6SM FEW250=



000
FTUS44 KMOB 272346
TAFMOB
TAF
KMOB 272346Z 2800/2824 15009KT P6SM FEW100 SCT200
     FM280600 11004KT P6SM SCT250
     FM281500 14009KT P6SM BKN250=



000
FTUS44 KMOB 272346
TAFPNS
TAF
KPNS 272346Z 2800/2824 15014KT P6SM SKC
     FM280600 11004KT P6SM SCT250
     FM281500 15009KT P6SM BKN250=



000
FTUS44 KMOB 271120
TAFMOB
TAF
KMOB 271120Z 2712/2812 13003KT 6SM BR FEW060 OVC200
     FM271500 15013G20KT P6SM SCT050 SCT100 BKN250
     FM272300 15005KT P6SM BKN250
     FM280600 11004KT P6SM SCT250=



000
FTUS44 KMOB 271120
TAFPNS
TAF
KPNS 271120Z 2712/2812 06004KT P6SM BKN250
     FM271500 16014G20KT P6SM SCT050 SCT100 BKN250
     FM272300 15008KT P6SM BKN250
     FM280600 11004KT P6SM SCT250=



    US Dept of Commerce
    National Oceanic and Atmospheric Administration
    National Weather Service
    1325 East West Highway
    Silver Spring, MD 20910
    Page Author: NWS Internet Services Team
Disclaimer
Information Quality
Credits
Glossary
Privacy Policy
Freedom of Information Act (FOIA)
About Us
Career Opportunities